sensor_id;sensor_type;location;lat;lon;timestamp;temperature;humidity
19552;DHT22;9921;47.186;9.778;2023-04-16T00:01:49;7.40;99.90
19552;DHT22;9921;47.186;9.778;2023-04-16T00:04:17;7.40;99.90
19552;DHT22;9921;47.186;9.778;2023-04-16T00:06:44;7.40;99.90
19552;DHT22;9921;47.186;9.778;2023-04-16T00:09:11;7.40;99.90
19552;DHT22;9921;47.186;9.778;2023-04-16T00:11:38;7.40;99.90
19552;DHT22;9921;47.186;9.778;2023-04-16T00:14:05;7.40;99.90
19552;DHT22;9921;47.186;9.778;2023-04-16T00:16:32;7.50;99.90
19552;DHT22;9921;47.186;9.778;2023-04-16T00:18:58;7.50;99.90
19552;DHT22;9921;47.186;9.778;2023-04-16T00:21:27;7.40;99.90
19552;DHT22;9921;47.186;9.778;2023-04-16T00:23:53;7.30;99.90
19552;DHT22;9921;47.186;9.778;2023-04-16T00:26:20;7.30;99.90
19552;DHT22;9921;47.186;9.778;2023-04-16T00:28:47;7.30;99.90
19552;DHT22;9921;47.186;9.778;2023-04-16T00:31:14;7.30;99.90
19552;DHT22;9921;47.186;9.778;2023-04-16T00:33:41;7.40;99.90
19552;DHT22;9921;47.186;9.778;2023-04-16T00:36:08;7.40;99.90
19552;DHT22;9921;47.186;9.778;2023-04-16T00:38:36;7.30;99.90
19552;DHT22;9921;47.186;9.778;2023-04-16T00:41:03;7.30;99.90
19552;DHT22;9921;47.186;9.778;2023-04-16T00:43:30;7.30;99.90
19552;DHT22;9921;47.186;9.778;2023-04-16T00:45:57;7.20;99.90
19552;DHT22;9921;47.186;9.778;2023-04-16T00:48:25;7.20;99.90
19552;DHT22;9921;47.186;9.778;2023-04-16T00:50:52;7.00;99.90
19552;DHT22;9921;47.186;9.778;2023-04-16T00:53:20;6.90;99.90
19552;DHT22;9921;47.186;9.778;2023-04-16T00:55:49;6.80;99.90
19552;DHT22;9921;47.186;9.778;2023-04-16T00:58:16;6.80;99.90
19552;DHT22;9921;47.186;9.778;2023-04-16T01:00:43;6.90;99.90
19552;DHT22;9921;47.186;9.778;2023-04-16T01:03:10;7.00;99.90
19552;DHT22;9921;47.186;9.778;2023-04-16T01:05:37;7.00;99.90
19552;DHT22;9921;47.186;9.778;2023-04-16T01:08:05;7.00;99.90
19552;DHT22;9921;47.186;9.778;2023-04-16T01:10:31;7.10;99.90
19552;DHT22;9921;47.186;9.778;2023-04-16T01:13:00;7.00;99.90
19552;DHT22;9921;47.186;9.778;2023-04-16T01:15:26;6.70;99.90
19552;DHT22;9921;47.186;9.778;2023-04-16T01:17:53;6.30;99.90
19552;DHT22;9921;47.186;9.778;2023-04-16T01:20:21;6.10;99.90
19552;DHT22;9921;47.186;9.778;2023-04-16T01:22:49;5.90;99.90
19552;DHT22;9921;47.186;9.778;2023-04-16T01:25:16;5.90;99.90
19552;DHT22;9921;47.186;9.778;2023-04-16T01:27:43;5.70;99.90
19552;DHT22;9921;47.186;9.778;2023-04-16T01:30:10;5.60;99.90
19552;DHT22;9921;47.186;9.778;2023-04-16T01:32:37;5.50;99.90
19552;DHT22;9921;47.186;9.778;2023-04-16T01:35:04;5.30;99.90
19552;DHT22;9921;47.186;9.778;2023-04-16T01:37:32;5.20;99.90
19552;DHT22;9921;47.186;9.778;2023-04-16T01:40:00;5.10;99.90
19552;DHT22;9921;47.186;9.778;2023-04-16T01:42:27;5.10;99.90
19552;DHT22;9921;47.186;9.778;2023-04-16T01:44:54;5.00;99.90
19552;DHT22;9921;47.186;9.778;2023-04-16T01:47:21;5.00;99.90
19552;DHT22;9921;47.186;9.778;2023-04-16T01:49:48;5.00;99.90
19552;DHT22;9921;47.186;9.778;2023-04-16T01:52:15;4.90;99.90
19552;DHT22;9921;47.186;9.778;2023-04-16T01:54:41;4.80;99.90
19552;DHT22;9921;47.186;9.778;2023-04-16T01:57:10;4.80;99.90
19552;DHT22;9921;47.186;9.778;2023-04-16T01:59:36;4.80;99.90
19552;DHT22;9921;47.186;9.778;2023-04-16T02:02:07;4.90;99.90
19552;DHT22;9921;47.186;9.778;2023-04-16T02:04:35;5.00;99.90
19552;DHT22;9921;47.186;9.778;2023-04-16T02:07:03;5.10;99.90
19552;DHT22;9921;47.186;9.778;2023-04-16T02:09:29;5.20;99.90
19552;DHT22;9921;47.186;9.778;2023-04-16T02:11:56;5.30;99.90
19552;DHT22;9921;47.186;9.778;2023-04-16T02:14:25;5.40;99.90
19552;DHT22;9921;47.186;9.778;2023-04-16T02:16:51;5.50;99.90
19552;DHT22;9921;47.186;9.778;2023-04-16T02:19:18;5.60;99.90
19552;DHT22;9921;47.186;9.778;2023-04-16T02:21:46;5.70;99.90
19552;DHT22;9921;47.186;9.778;2023-04-16T02:24:13;5.80;99.90
19552;DHT22;9921;47.186;9.778;2023-04-16T02:26:40;5.90;99.90
19552;DHT22;9921;47.186;9.778;2023-04-16T02:29:07;6.00;99.90
19552;DHT22;9921;47.186;9.778;2023-04-16T02:31:35;6.00;99.90
19552;DHT22;9921;47.186;9.778;2023-04-16T02:34:03;6.10;99.90
19552;DHT22;9921;47.186;9.778;2023-04-16T02:36:30;6.10;99.90
19552;DHT22;9921;47.186;9.778;2023-04-16T02:38:57;6.20;99.90
19552;DHT22;9921;47.186;9.778;2023-04-16T02:41:24;6.20;99.90
19552;DHT22;9921;47.186;9.778;2023-04-16T02:43:51;6.20;99.90
19552;DHT22;9921;47.186;9.778;2023-04-16T02:46:18;6.30;99.90
19552;DHT22;9921;47.186;9.778;2023-04-16T02:48:46;6.30;99.90
19552;DHT22;9921;47.186;9.778;2023-04-16T02:51:13;6.40;99.90
19552;DHT22;9921;47.186;9.778;2023-04-16T02:53:40;6.50;99.90
19552;DHT22;9921;47.186;9.778;2023-04-16T02:56:10;6.50;99.90
19552;DHT22;9921;47.186;9.778;2023-04-16T02:58:37;6.40;99.90
19552;DHT22;9921;47.186;9.778;2023-04-16T03:01:04;6.20;99.90
19552;DHT22;9921;47.186;9.778;2023-04-16T03:03:31;6.20;99.90
19552;DHT22;9921;47.186;9.778;2023-04-16T03:05:59;6.20;99.90
19552;DHT22;9921;47.186;9.778;2023-04-16T03:08:26;6.20;99.90
19552;DHT22;9921;47.186;9.778;2023-04-16T03:10:53;6.10;99.90
19552;DHT22;9921;47.186;9.778;2023-04-16T03:13:20;6.00;99.90
19552;DHT22;9921;47.186;9.778;2023-04-16T03:15:50;6.00;99.90
19552;DHT22;9921;47.186;9.778;2023-04-16T03:18:16;6.00;99.90
19552;DHT22;9921;47.186;9.778;2023-04-16T03:20:43;6.10;99.90
19552;DHT22;9921;47.186;9.778;2023-04-16T03:23:11;6.20;99.90
19552;DHT22;9921;47.186;9.778;2023-04-16T03:25:38;6.20;99.90
19552;DHT22;9921;47.186;9.778;2023-04-16T03:28:08;6.40;99.90
19552;DHT22;9921;47.186;9.778;2023-04-16T03:30:34;6.30;99.90
19552;DHT22;9921;47.186;9.778;2023-04-16T03:33:02;6.10;99.90
19552;DHT22;9921;47.186;9.778;2023-04-16T03:35:29;6.10;99.90
19552;DHT22;9921;47.186;9.778;2023-04-16T03:37:56;6.00;99.90
19552;DHT22;9921;47.186;9.778;2023-04-16T03:40:24;6.00;99.90
19552;DHT22;9921;47.186;9.778;2023-04-16T03:42:51;6.10;99.90
19552;DHT22;9921;47.186;9.778;2023-04-16T03:45:17;6.10;99.90
19552;DHT22;9921;47.186;9.778;2023-04-16T03:47:44;5.90;99.90
19552;DHT22;9921;47.186;9.778;2023-04-16T03:50:13;5.70;99.90
19552;DHT22;9921;47.186;9.778;2023-04-16T03:52:39;5.60;99.90
19552;DHT22;9921;47.186;9.778;2023-04-16T03:55:07;5.50;99.90
19552;DHT22;9921;47.186;9.778;2023-04-16T03:57:35;5.50;99.90
19552;DHT22;9921;47.186;9.778;2023-04-16T04:00:02;5.40;99.90
19552;DHT22;9921;47.186;9.778;2023-04-16T04:02:29;5.30;99.90
19552;DHT22;9921;47.186;9.778;2023-04-16T04:04:56;5.20;99.90
19552;DHT22;9921;47.186;9.778;2023-04-16T04:07:23;5.20;99.90
19552;DHT22;9921;47.186;9.778;2023-04-16T04:09:50;5.10;99.90
19552;DHT22;9921;47.186;9.778;2023-04-16T04:12:17;5.00;99.90
19552;DHT22;9921;47.186;9.778;2023-04-16T04:14:45;5.00;99.90
19552;DHT22;9921;47.186;9.778;2023-04-16T04:17:12;5.00;99.90
19552;DHT22;9921;47.186;9.778;2023-04-16T04:19:38;5.00;99.90
19552;DHT22;9921;47.186;9.778;2023-04-16T04:22:06;5.00;99.90
19552;DHT22;9921;47.186;9.778;2023-04-16T04:24:32;5.10;99.90
19552;DHT22;9921;47.186;9.778;2023-04-16T04:27:00;5.10;99.90
19552;DHT22;9921;47.186;9.778;2023-04-16T04:29:28;5.10;99.90
19552;DHT22;9921;47.186;9.778;2023-04-16T04:31:56;5.00;99.90
19552;DHT22;9921;47.186;9.778;2023-04-16T04:34:23;4.80;99.90
19552;DHT22;9921;47.186;9.778;2023-04-16T04:36:50;4.70;99.90
19552;DHT22;9921;47.186;9.778;2023-04-16T04:39:17;4.60;99.90
19552;DHT22;9921;47.186;9.778;2023-04-16T04:41:46;4.60;99.90
19552;DHT22;9921;47.186;9.778;2023-04-16T04:44:13;4.70;99.90
19552;DHT22;9921;47.186;9.778;2023-04-16T04:46:39;4.80;99.90
19552;DHT22;9921;47.186;9.778;2023-04-16T04:49:08;4.90;99.90
19552;DHT22;9921;47.186;9.778;2023-04-16T04:51:34;4.90;99.90
19552;DHT22;9921;47.186;9.778;2023-04-16T04:54:01;4.90;99.90
19552;DHT22;9921;47.186;9.778;2023-04-16T04:56:28;4.90;99.90
19552;DHT22;9921;47.186;9.778;2023-04-16T04:58:55;4.90;99.90
19552;DHT22;9921;47.186;9.778;2023-04-16T05:01:22;4.90;99.90
19552;DHT22;9921;47.186;9.778;2023-04-16T05:03:49;4.90;99.90
19552;DHT22;9921;47.186;9.778;2023-04-16T05:06:17;5.00;99.90
19552;DHT22;9921;47.186;9.778;2023-04-16T05:08:44;5.10;99.90
19552;DHT22;9921;47.186;9.778;2023-04-16T05:11:11;5.10;99.90
19552;DHT22;9921;47.186;9.778;2023-04-16T05:13:37;5.10;99.90
19552;DHT22;9921;47.186;9.778;2023-04-16T05:16:05;5.20;99.90
19552;DHT22;9921;47.186;9.778;2023-04-16T05:18:32;5.40;99.90
19552;DHT22;9921;47.186;9.778;2023-04-16T05:20:59;5.40;99.90
19552;DHT22;9921;47.186;9.778;2023-04-16T05:23:27;5.50;99.90
19552;DHT22;9921;47.186;9.778;2023-04-16T05:25:54;5.50;99.90
19552;DHT22;9921;47.186;9.778;2023-04-16T05:28:20;5.40;99.90
19552;DHT22;9921;47.186;9.778;2023-04-16T05:30:47;5.40;99.90
19552;DHT22;9921;47.186;9.778;2023-04-16T05:33:14;5.40;99.90
19552;DHT22;9921;47.186;9.778;2023-04-16T05:35:41;5.20;99.90
19552;DHT22;9921;47.186;9.778;2023-04-16T05:38:08;5.20;99.90
19552;DHT22;9921;47.186;9.778;2023-04-16T05:40:36;5.20;99.90
19552;DHT22;9921;47.186;9.778;2023-04-16T05:43:03;5.20;99.90
19552;DHT22;9921;47.186;9.778;2023-04-16T05:45:29;5.30;99.90
19552;DHT22;9921;47.186;9.778;2023-04-16T05:47:58;5.40;99.90
19552;DHT22;9921;47.186;9.778;2023-04-16T05:50:24;5.60;99.90
19552;DHT22;9921;47.186;9.778;2023-04-16T05:52:51;5.50;99.90
19552;DHT22;9921;47.186;9.778;2023-04-16T05:55:18;5.60;99.90
19552;DHT22;9921;47.186;9.778;2023-04-16T05:57:46;5.50;99.90
19552;DHT22;9921;47.186;9.778;2023-04-16T06:00:13;5.50;99.90
19552;DHT22;9921;47.186;9.778;2023-04-16T06:02:41;5.50;99.90
19552;DHT22;9921;47.186;9.778;2023-04-16T06:05:08;5.40;99.90
19552;DHT22;9921;47.186;9.778;2023-04-16T06:07:35;5.50;99.90
19552;DHT22;9921;47.186;9.778;2023-04-16T06:10:01;5.40;99.90
19552;DHT22;9921;47.186;9.778;2023-04-16T06:12:28;5.40;99.90
19552;DHT22;9921;47.186;9.778;2023-04-16T06:14:58;5.50;99.90
19552;DHT22;9921;47.186;9.778;2023-04-16T06:17:25;5.50;99.90
19552;DHT22;9921;47.186;9.778;2023-04-16T06:19:52;5.50;99.90
19552;DHT22;9921;47.186;9.778;2023-04-16T06:22:19;5.50;99.90
19552;DHT22;9921;47.186;9.778;2023-04-16T06:24:46;5.60;99.90
19552;DHT22;9921;47.186;9.778;2023-04-16T06:27:13;5.60;99.90
19552;DHT22;9921;47.186;9.778;2023-04-16T06:29:40;5.60;99.90
19552;DHT22;9921;47.186;9.778;2023-04-16T06:32:08;5.50;99.90
19552;DHT22;9921;47.186;9.778;2023-04-16T06:34:35;5.40;99.90
19552;DHT22;9921;47.186;9.778;2023-04-16T06:37:02;5.20;99.90
19552;DHT22;9921;47.186;9.778;2023-04-16T06:39:29;5.00;99.90
19552;DHT22;9921;47.186;9.778;2023-04-16T06:41:56;4.80;99.90
19552;DHT22;9921;47.186;9.778;2023-04-16T06:44:23;4.80;99.90
19552;DHT22;9921;47.186;9.778;2023-04-16T06:46:50;5.00;99.90
19552;DHT22;9921;47.186;9.778;2023-04-16T06:49:18;5.00;99.90
19552;DHT22;9921;47.186;9.778;2023-04-16T06:51:45;5.10;99.90
19552;DHT22;9921;47.186;9.778;2023-04-16T06:54:12;5.30;99.90
19552;DHT22;9921;47.186;9.778;2023-04-16T06:56:39;5.40;99.90
19552;DHT22;9921;47.186;9.778;2023-04-16T06:59:06;5.50;99.90
19552;DHT22;9921;47.186;9.778;2023-04-16T07:01:33;5.50;99.90
19552;DHT22;9921;47.186;9.778;2023-04-16T07:04:00;5.40;99.90
19552;DHT22;9921;47.186;9.778;2023-04-16T07:06:29;5.40;99.90
19552;DHT22;9921;47.186;9.778;2023-04-16T07:08:56;5.50;99.90
19552;DHT22;9921;47.186;9.778;2023-04-16T07:11:23;5.60;99.90
19552;DHT22;9921;47.186;9.778;2023-04-16T07:13:50;5.60;99.90
19552;DHT22;9921;47.186;9.778;2023-04-16T07:16:18;5.60;99.90
19552;DHT22;9921;47.186;9.778;2023-04-16T07:18:45;5.70;99.90
19552;DHT22;9921;47.186;9.778;2023-04-16T07:21:11;5.70;99.90
19552;DHT22;9921;47.186;9.778;2023-04-16T07:23:40;5.70;99.90
19552;DHT22;9921;47.186;9.778;2023-04-16T07:26:07;5.70;99.90
19552;DHT22;9921;47.186;9.778;2023-04-16T07:28:35;5.80;99.90
19552;DHT22;9921;47.186;9.778;2023-04-16T07:31:02;5.80;99.90
19552;DHT22;9921;47.186;9.778;2023-04-16T07:33:28;5.80;99.90
19552;DHT22;9921;47.186;9.778;2023-04-16T07:35:55;5.90;99.90
19552;DHT22;9921;47.186;9.778;2023-04-16T07:38:22;5.90;99.90
19552;DHT22;9921;47.186;9.778;2023-04-16T07:40:50;6.00;99.90
19552;DHT22;9921;47.186;9.778;2023-04-16T07:43:17;6.10;99.90
19552;DHT22;9921;47.186;9.778;2023-04-16T07:45:44;6.00;99.90
19552;DHT22;9921;47.186;9.778;2023-04-16T07:48:11;6.10;99.90
19552;DHT22;9921;47.186;9.778;2023-04-16T07:50:38;6.00;99.90
19552;DHT22;9921;47.186;9.778;2023-04-16T07:53:06;6.10;99.90
19552;DHT22;9921;47.186;9.778;2023-04-16T07:55:33;6.00;99.90
19552;DHT22;9921;47.186;9.778;2023-04-16T07:58:01;5.90;99.90
19552;DHT22;9921;47.186;9.778;2023-04-16T08:00:28;6.00;99.90
19552;DHT22;9921;47.186;9.778;2023-04-16T08:02:55;6.10;99.90
19552;DHT22;9921;47.186;9.778;2023-04-16T08:05:22;6.20;99.90
19552;DHT22;9921;47.186;9.778;2023-04-16T08:07:49;6.30;99.90
19552;DHT22;9921;47.186;9.778;2023-04-16T08:10:15;6.50;99.90
19552;DHT22;9921;47.186;9.778;2023-04-16T08:12:42;6.50;99.90
19552;DHT22;9921;47.186;9.778;2023-04-16T08:15:11;6.60;99.90
19552;DHT22;9921;47.186;9.778;2023-04-16T08:17:38;6.70;99.90
19552;DHT22;9921;47.186;9.778;2023-04-16T08:20:05;6.70;99.90
19552;DHT22;9921;47.186;9.778;2023-04-16T08:22:32;6.90;99.90
19552;DHT22;9921;47.186;9.778;2023-04-16T08:24:59;6.90;99.90
19552;DHT22;9921;47.186;9.778;2023-04-16T08:27:26;6.90;99.90
19552;DHT22;9921;47.186;9.778;2023-04-16T08:29:53;6.90;99.90
19552;DHT22;9921;47.186;9.778;2023-04-16T08:32:21;6.90;99.90
19552;DHT22;9921;47.186;9.778;2023-04-16T08:34:48;6.80;99.90
19552;DHT22;9921;47.186;9.778;2023-04-16T08:37:15;6.70;99.90
19552;DHT22;9921;47.186;9.778;2023-04-16T08:39:42;6.70;99.90
19552;DHT22;9921;47.186;9.778;2023-04-16T08:42:14;6.60;99.90
19552;DHT22;9921;47.186;9.778;2023-04-16T08:44:47;6.40;99.90
19552;DHT22;9921;47.186;9.778;2023-04-16T08:47:15;6.50;99.90
19552;DHT22;9921;47.186;9.778;2023-04-16T08:49:44;6.60;99.90
19552;DHT22;9921;47.186;9.778;2023-04-16T08:52:14;6.80;99.90
19552;DHT22;9921;47.186;9.778;2023-04-16T08:54:48;7.00;99.90
19552;DHT22;9921;47.186;9.778;2023-04-16T08:57:18;7.00;99.90
19552;DHT22;9921;47.186;9.778;2023-04-16T08:59:47;7.00;99.90
19552;DHT22;9921;47.186;9.778;2023-04-16T09:02:14;7.10;99.90
19552;DHT22;9921;47.186;9.778;2023-04-16T09:04:43;7.10;99.90
19552;DHT22;9921;47.186;9.778;2023-04-16T09:07:10;7.10;99.90
19552;DHT22;9921;47.186;9.778;2023-04-16T09:09:37;7.10;99.90
19552;DHT22;9921;47.186;9.778;2023-04-16T09:12:06;7.10;99.90
19552;DHT22;9921;47.186;9.778;2023-04-16T09:14:34;7.00;99.90
19552;DHT22;9921;47.186;9.778;2023-04-16T09:17:03;6.80;99.90
19552;DHT22;9921;47.186;9.778;2023-04-16T09:19:31;6.80;99.90
19552;DHT22;9921;47.186;9.778;2023-04-16T09:21:59;6.80;99.90
19552;DHT22;9921;47.186;9.778;2023-04-16T09:24:27;7.00;99.90
19552;DHT22;9921;47.186;9.778;2023-04-16T09:26:55;7.00;99.90
19552;DHT22;9921;47.186;9.778;2023-04-16T09:29:32;7.10;99.90
19552;DHT22;9921;47.186;9.778;2023-04-16T09:32:04;7.30;99.90
19552;DHT22;9921;47.186;9.778;2023-04-16T09:34:32;7.40;99.90
19552;DHT22;9921;47.186;9.778;2023-04-16T09:37:15;7.20;99.90
19552;DHT22;9921;47.186;9.778;2023-04-16T09:39:42;7.30;99.90
19552;DHT22;9921;47.186;9.778;2023-04-16T09:42:09;7.20;99.90
19552;DHT22;9921;47.186;9.778;2023-04-16T09:44:36;7.10;99.90
19552;DHT22;9921;47.186;9.778;2023-04-16T09:47:05;7.00;99.90
19552;DHT22;9921;47.186;9.778;2023-04-16T09:49:33;6.90;99.90
19552;DHT22;9921;47.186;9.778;2023-04-16T09:52:01;6.70;99.90
19552;DHT22;9921;47.186;9.778;2023-04-16T09:54:29;6.50;99.90
19552;DHT22;9921;47.186;9.778;2023-04-16T09:56:56;6.50;99.90
19552;DHT22;9921;47.186;9.778;2023-04-16T09:59:23;6.60;99.90
19552;DHT22;9921;47.186;9.778;2023-04-16T10:01:50;6.70;99.90
19552;DHT22;9921;47.186;9.778;2023-04-16T10:04:18;6.60;99.90
19552;DHT22;9921;47.186;9.778;2023-04-16T10:07:01;6.70;99.90
19552;DHT22;9921;47.186;9.778;2023-04-16T10:09:36;6.80;99.90
19552;DHT22;9921;47.186;9.778;2023-04-16T10:12:03;6.90;99.90
19552;DHT22;9921;47.186;9.778;2023-04-16T10:14:30;6.90;99.90
19552;DHT22;9921;47.186;9.778;2023-04-16T10:16:58;7.00;99.90
19552;DHT22;9921;47.186;9.778;2023-04-16T10:19:26;7.00;99.90
19552;DHT22;9921;47.186;9.778;2023-04-16T10:21:53;7.10;99.90
19552;DHT22;9921;47.186;9.778;2023-04-16T10:24:21;7.10;99.90
19552;DHT22;9921;47.186;9.778;2023-04-16T10:26:51;7.20;99.90
19552;DHT22;9921;47.186;9.778;2023-04-16T10:29:18;7.50;99.90
19552;DHT22;9921;47.186;9.778;2023-04-16T10:31:46;7.60;99.90
19552;DHT22;9921;47.186;9.778;2023-04-16T10:34:14;7.80;99.90
19552;DHT22;9921;47.186;9.778;2023-04-16T10:36:41;7.90;99.90
19552;DHT22;9921;47.186;9.778;2023-04-16T10:39:09;8.00;99.90
19552;DHT22;9921;47.186;9.778;2023-04-16T10:41:37;8.00;99.90
19552;DHT22;9921;47.186;9.778;2023-04-16T10:44:06;8.00;99.90
19552;DHT22;9921;47.186;9.778;2023-04-16T10:46:36;8.30;99.90
19552;DHT22;9921;47.186;9.778;2023-04-16T10:49:12;8.40;99.90
19552;DHT22;9921;47.186;9.778;2023-04-16T10:51:39;8.60;99.90
19552;DHT22;9921;47.186;9.778;2023-04-16T10:54:19;8.80;99.90
19552;DHT22;9921;47.186;9.778;2023-04-16T10:56:46;8.90;99.90
19552;DHT22;9921;47.186;9.778;2023-04-16T10:59:17;9.10;99.90
19552;DHT22;9921;47.186;9.778;2023-04-16T11:01:46;9.10;99.90
19552;DHT22;9921;47.186;9.778;2023-04-16T11:04:32;9.30;99.90
19552;DHT22;9921;47.186;9.778;2023-04-16T11:07:04;9.40;99.90
19552;DHT22;9921;47.186;9.778;2023-04-16T11:09:44;9.50;99.90
19552;DHT22;9921;47.186;9.778;2023-04-16T11:12:12;9.50;99.90
19552;DHT22;9921;47.186;9.778;2023-04-16T11:14:41;9.50;99.90
19552;DHT22;9921;47.186;9.778;2023-04-16T11:17:08;9.10;99.90
19552;DHT22;9921;47.186;9.778;2023-04-16T11:19:35;8.80;99.90
19552;DHT22;9921;47.186;9.778;2023-04-16T11:22:03;8.50;99.90
19552;DHT22;9921;47.186;9.778;2023-04-16T11:24:30;8.30;99.90
19552;DHT22;9921;47.186;9.778;2023-04-16T11:26:57;8.20;99.90
19552;DHT22;9921;47.186;9.778;2023-04-16T11:29:23;8.00;99.90
19552;DHT22;9921;47.186;9.778;2023-04-16T11:31:52;8.10;99.90
19552;DHT22;9921;47.186;9.778;2023-04-16T11:34:20;8.00;99.90
19552;DHT22;9921;47.186;9.778;2023-04-16T11:36:48;7.90;99.90
19552;DHT22;9921;47.186;9.778;2023-04-16T11:39:15;7.90;99.90
19552;DHT22;9921;47.186;9.778;2023-04-16T11:41:42;7.80;99.90
19552;DHT22;9921;47.186;9.778;2023-04-16T11:44:22;7.80;99.90
19552;DHT22;9921;47.186;9.778;2023-04-16T11:46:51;7.90;99.90
19552;DHT22;9921;47.186;9.778;2023-04-16T11:49:26;7.80;99.90
19552;DHT22;9921;47.186;9.778;2023-04-16T11:51:53;7.90;99.90
19552;DHT22;9921;47.186;9.778;2023-04-16T11:54:21;8.00;99.90
19552;DHT22;9921;47.186;9.778;2023-04-16T11:56:49;8.10;99.90
19552;DHT22;9921;47.186;9.778;2023-04-16T11:59:17;8.10;99.90
19552;DHT22;9921;47.186;9.778;2023-04-16T12:01:46;8.30;99.90
19552;DHT22;9921;47.186;9.778;2023-04-16T12:04:17;8.30;99.90
19552;DHT22;9921;47.186;9.778;2023-04-16T12:07:03;8.50;99.90
19552;DHT22;9921;47.186;9.778;2023-04-16T12:09:30;8.60;99.90
19552;DHT22;9921;47.186;9.778;2023-04-16T12:11:57;8.90;99.90
19552;DHT22;9921;47.186;9.778;2023-04-16T12:14:23;9.10;99.90
19552;DHT22;9921;47.186;9.778;2023-04-16T12:16:50;8.90;99.90
19552;DHT22;9921;47.186;9.778;2023-04-16T12:19:19;9.00;99.90
19552;DHT22;9921;47.186;9.778;2023-04-16T12:21:48;9.10;99.90
19552;DHT22;9921;47.186;9.778;2023-04-16T12:24:16;9.00;99.90
19552;DHT22;9921;47.186;9.778;2023-04-16T12:26:46;8.90;99.90
19552;DHT22;9921;47.186;9.778;2023-04-16T12:29:14;8.90;99.90
19552;DHT22;9921;47.186;9.778;2023-04-16T12:31:42;8.90;99.90
19552;DHT22;9921;47.186;9.778;2023-04-16T12:34:08;9.00;99.90
19552;DHT22;9921;47.186;9.778;2023-04-16T12:36:37;8.90;99.90
19552;DHT22;9921;47.186;9.778;2023-04-16T12:39:04;8.80;99.90
19552;DHT22;9921;47.186;9.778;2023-04-16T12:41:33;9.00;99.90
19552;DHT22;9921;47.186;9.778;2023-04-16T12:44:07;9.20;99.90
19552;DHT22;9921;47.186;9.778;2023-04-16T12:46:36;9.40;99.90
19552;DHT22;9921;47.186;9.778;2023-04-16T12:49:03;9.40;99.90
19552;DHT22;9921;47.186;9.778;2023-04-16T12:51:31;9.60;99.90
19552;DHT22;9921;47.186;9.778;2023-04-16T12:53:59;9.90;99.90
19552;DHT22;9921;47.186;9.778;2023-04-16T12:56:26;10.00;99.90
19552;DHT22;9921;47.186;9.778;2023-04-16T12:58:53;10.00;99.90
19552;DHT22;9921;47.186;9.778;2023-04-16T13:01:21;10.10;99.90
19552;DHT22;9921;47.186;9.778;2023-04-16T13:03:48;10.20;99.90
19552;DHT22;9921;47.186;9.778;2023-04-16T13:06:16;10.30;99.90
19552;DHT22;9921;47.186;9.778;2023-04-16T13:08:43;10.40;99.90
19552;DHT22;9921;47.186;9.778;2023-04-16T13:11:12;10.50;99.90
19552;DHT22;9921;47.186;9.778;2023-04-16T13:13:39;10.50;99.90
19552;DHT22;9921;47.186;9.778;2023-04-16T13:16:06;10.50;99.90
19552;DHT22;9921;47.186;9.778;2023-04-16T13:18:33;10.50;99.90
19552;DHT22;9921;47.186;9.778;2023-04-16T13:21:00;10.60;99.90
19552;DHT22;9921;47.186;9.778;2023-04-16T13:23:27;10.70;99.90
19552;DHT22;9921;47.186;9.778;2023-04-16T13:25:54;10.60;99.90
19552;DHT22;9921;47.186;9.778;2023-04-16T13:28:23;10.50;99.90
19552;DHT22;9921;47.186;9.778;2023-04-16T13:30:50;10.60;99.90
19552;DHT22;9921;47.186;9.778;2023-04-16T13:33:17;10.60;99.90
19552;DHT22;9921;47.186;9.778;2023-04-16T13:35:45;10.60;99.90
19552;DHT22;9921;47.186;9.778;2023-04-16T13:38:12;10.50;99.90
19552;DHT22;9921;47.186;9.778;2023-04-16T13:40:39;10.50;99.90
19552;DHT22;9921;47.186;9.778;2023-04-16T13:43:06;10.50;99.90
19552;DHT22;9921;47.186;9.778;2023-04-16T13:45:34;10.40;99.90
19552;DHT22;9921;47.186;9.778;2023-04-16T13:48:01;10.60;99.90
19552;DHT22;9921;47.186;9.778;2023-04-16T13:50:28;10.60;99.90
19552;DHT22;9921;47.186;9.778;2023-04-16T13:52:55;10.60;99.90
19552;DHT22;9921;47.186;9.778;2023-04-16T13:55:22;10.50;99.90
19552;DHT22;9921;47.186;9.778;2023-04-16T13:57:48;10.50;99.90
19552;DHT22;9921;47.186;9.778;2023-04-16T14:00:18;10.60;99.90
19552;DHT22;9921;47.186;9.778;2023-04-16T14:02:46;10.60;99.90
19552;DHT22;9921;47.186;9.778;2023-04-16T14:05:13;10.60;99.90
19552;DHT22;9921;47.186;9.778;2023-04-16T14:07:40;10.60;99.90
19552;DHT22;9921;47.186;9.778;2023-04-16T14:10:08;10.60;99.90
19552;DHT22;9921;47.186;9.778;2023-04-16T14:12:35;10.60;99.90
19552;DHT22;9921;47.186;9.778;2023-04-16T14:15:03;10.60;99.90
19552;DHT22;9921;47.186;9.778;2023-04-16T14:17:31;10.70;99.90
19552;DHT22;9921;47.186;9.778;2023-04-16T14:19:59;10.70;99.90
19552;DHT22;9921;47.186;9.778;2023-04-16T14:22:26;10.80;99.90
19552;DHT22;9921;47.186;9.778;2023-04-16T14:24:53;10.90;99.90
19552;DHT22;9921;47.186;9.778;2023-04-16T14:27:20;10.80;99.90
19552;DHT22;9921;47.186;9.778;2023-04-16T14:29:46;10.80;99.90
19552;DHT22;9921;47.186;9.778;2023-04-16T14:32:13;10.80;99.90
19552;DHT22;9921;47.186;9.778;2023-04-16T14:34:40;10.70;99.90
19552;DHT22;9921;47.186;9.778;2023-04-16T14:37:08;10.70;99.90
19552;DHT22;9921;47.186;9.778;2023-04-16T14:39:35;10.60;99.90
19552;DHT22;9921;47.186;9.778;2023-04-16T14:42:03;10.50;99.90
19552;DHT22;9921;47.186;9.778;2023-04-16T14:44:31;10.50;99.90
19552;DHT22;9921;47.186;9.778;2023-04-16T14:46:57;10.50;99.90
19552;DHT22;9921;47.186;9.778;2023-04-16T14:49:24;10.50;99.90
19552;DHT22;9921;47.186;9.778;2023-04-16T14:51:51;10.50;99.90
19552;DHT22;9921;47.186;9.778;2023-04-16T14:54:19;10.50;99.90
19552;DHT22;9921;47.186;9.778;2023-04-16T14:56:46;10.50;99.90
19552;DHT22;9921;47.186;9.778;2023-04-16T14:59:13;10.50;99.90
19552;DHT22;9921;47.186;9.778;2023-04-16T15:01:40;10.50;99.90
19552;DHT22;9921;47.186;9.778;2023-04-16T15:04:07;10.60;99.90
19552;DHT22;9921;47.186;9.778;2023-04-16T15:06:34;10.60;99.90
19552;DHT22;9921;47.186;9.778;2023-04-16T15:09:01;10.50;99.90
19552;DHT22;9921;47.186;9.778;2023-04-16T15:11:30;10.60;99.90
19552;DHT22;9921;47.186;9.778;2023-04-16T15:13:57;10.60;99.90
19552;DHT22;9921;47.186;9.778;2023-04-16T15:16:24;10.60;99.90
19552;DHT22;9921;47.186;9.778;2023-04-16T15:18:50;10.50;99.90
19552;DHT22;9921;47.186;9.778;2023-04-16T15:21:17;10.20;99.90
19552;DHT22;9921;47.186;9.778;2023-04-16T15:23:44;9.90;99.90
19552;DHT22;9921;47.186;9.778;2023-04-16T15:26:11;9.50;99.90
19552;DHT22;9921;47.186;9.778;2023-04-16T15:28:39;9.40;99.90
19552;DHT22;9921;47.186;9.778;2023-04-16T15:31:06;9.50;99.90
19552;DHT22;9921;47.186;9.778;2023-04-16T15:33:33;9.70;99.90
19552;DHT22;9921;47.186;9.778;2023-04-16T15:36:00;9.80;99.90
19552;DHT22;9921;47.186;9.778;2023-04-16T15:38:27;10.00;99.90
19552;DHT22;9921;47.186;9.778;2023-04-16T15:40:57;10.10;99.90
19552;DHT22;9921;47.186;9.778;2023-04-16T15:43:26;10.10;99.90
19552;DHT22;9921;47.186;9.778;2023-04-16T15:45:54;10.20;99.90
19552;DHT22;9921;47.186;9.778;2023-04-16T15:48:22;10.20;99.90
19552;DHT22;9921;47.186;9.778;2023-04-16T15:50:49;10.30;99.90
19552;DHT22;9921;47.186;9.778;2023-04-16T15:53:16;10.30;99.90
19552;DHT22;9921;47.186;9.778;2023-04-16T15:55:43;10.30;99.90
19552;DHT22;9921;47.186;9.778;2023-04-16T15:58:10;10.30;99.90
19552;DHT22;9921;47.186;9.778;2023-04-16T16:00:37;10.30;99.90
19552;DHT22;9921;47.186;9.778;2023-04-16T16:03:05;10.30;99.90